Portada
METAR-TAF:

METAR-TAF

Aeroports :

Rajahmundry, Índia

latitud: 17-06-37N, longitud: 81-49-06E, altitud: 46 m

Observació

L'informe es va fer fa 29 minuts, a les 10:00 UTC
Vent 3 kt del Sud
Temperatura 29°C
Humitat 79%
Pressió 1011 hPa
Visibilitat: 5000 m
Núvols disperses a una alçada de 2000 ft
Núvols disperses a una alçada de 2500 ft
Cel ennuvolat a una alçada de 8000 ft
calitja

METAR: VORY 151000Z 18003KT 5000 HZ SCT020 SCT025 BKN080 29/25 Q1011 NOSIG

Hora: 15:59 (10:29 UTC)


TAF: manca

Observacions i pronòstics meteorològics de més de 4000 aeroports (METAR i TAF).

Les estacions disponibles són els punts grocs i vermells al mapa.

Posi el ratolí al punt desitjat per veure el nom de l'estació.

Feu clic per veure les observacions i els pronòstics meteorològics.

Per canviar el mapa: feu clic els botons verds amb una creu de color negre per apropar; al botó verd amb un guió per allunyar la imatge; o en les fletxes verdes per a mapes adjacents.


METAR-TAF: